createdAt,value
2023-04-16T00:01:37.647Z,24.97
2023-04-16T00:04:04.534Z,24.20
2023-04-16T00:06:31.938Z,25.57
2023-04-16T00:08:58.550Z,29.10
2023-04-16T00:11:25.282Z,22.50
2023-04-16T00:13:51.940Z,21.67
2023-04-16T00:16:18.493Z,21.17
2023-04-16T00:18:45.391Z,25.60
2023-04-16T00:21:12.276Z,21.77
2023-04-16T00:23:38.853Z,23.80
2023-04-16T00:26:05.400Z,23.90
2023-04-16T00:28:31.950Z,21.23
2023-04-16T00:30:58.734Z,23.70
2023-04-16T00:33:25.368Z,20.57
2023-04-16T00:35:51.939Z,21.00
2023-04-16T00:38:18.500Z,25.43
2023-04-16T00:40:45.032Z,22.20
2023-04-16T00:43:11.621Z,28.53
2023-04-16T00:45:38.707Z,26.07
2023-04-16T00:48:06.278Z,22.23
2023-04-16T00:50:33.552Z,21.80
2023-04-16T00:53:01.469Z,20.50
2023-04-16T00:55:28.075Z,25.50
2023-04-16T00:57:54.626Z,25.90
2023-04-16T01:00:21.529Z,24.90
2023-04-16T01:02:48.278Z,25.03
2023-04-16T01:05:14.929Z,25.97
2023-04-16T01:07:41.502Z,25.30
2023-04-16T01:10:08.358Z,25.53
2023-04-16T01:12:34.898Z,32.60
2023-04-16T01:15:01.625Z,26.73
2023-04-16T01:17:28.216Z,30.30
2023-04-16T01:19:57.908Z,26.63
2023-04-16T01:22:24.460Z,25.00
2023-04-16T01:24:50.975Z,31.43
2023-04-16T01:27:17.525Z,33.60
2023-04-16T01:29:44.060Z,29.53
2023-04-16T01:32:10.621Z,27.30
2023-04-16T01:34:37.153Z,31.70
2023-04-16T01:37:04.102Z,34.20
2023-04-16T01:39:30.815Z,31.47
2023-04-16T01:41:57.365Z,33.90
2023-04-16T01:44:23.959Z,32.07
2023-04-16T01:46:50.516Z,32.13
2023-04-16T01:49:17.183Z,34.30
2023-04-16T01:51:43.753Z,30.63
2023-04-16T01:54:10.504Z,32.43
2023-04-16T01:56:37.065Z,29.17
2023-04-16T01:59:03.703Z,29.00
2023-04-16T02:01:30.480Z,28.10
2023-04-16T02:03:57.585Z,32.40
2023-04-16T02:06:24.232Z,27.90
2023-04-16T02:08:51.131Z,33.43
2023-04-16T02:11:17.657Z,32.70
2023-04-16T02:13:44.213Z,37.27
2023-04-16T02:16:10.791Z,31.50
2023-04-16T02:18:37.361Z,27.60
2023-04-16T02:21:06.303Z,35.77
2023-04-16T02:23:32.906Z,35.73
2023-04-16T02:25:59.738Z,30.60
2023-04-16T02:28:26.298Z,31.33
2023-04-16T02:30:52.862Z,36.33
2023-04-16T02:33:20.119Z,35.40
2023-04-16T02:35:48.485Z,31.63
2023-04-16T02:38:15.078Z,28.20
2023-04-16T02:40:41.782Z,29.50
2023-04-16T02:43:08.317Z,38.23
2023-04-16T02:45:35.162Z,35.60
2023-04-16T02:48:01.748Z,35.03
2023-04-16T02:50:28.330Z,35.10
2023-04-16T02:52:54.915Z,39.20
2023-04-16T02:55:21.500Z,35.77
2023-04-16T02:57:48.059Z,30.30
2023-04-16T03:00:16.313Z,32.53
2023-04-16T03:02:43.050Z,36.63
2023-04-16T03:05:10.225Z,40.67
2023-04-16T03:07:39.054Z,36.30
2023-04-16T03:10:07.050Z,35.20
2023-04-16T03:12:33.600Z,37.80
2023-04-16T03:15:00.624Z,34.83
2023-04-16T03:17:27.191Z,42.73
2023-04-16T03:19:53.785Z,41.07
2023-04-16T03:22:20.426Z,35.13
2023-04-16T03:24:46.968Z,40.60
2023-04-16T03:27:13.525Z,39.67
2023-04-16T03:29:40.117Z,40.50
2023-04-16T03:32:06.732Z,37.50
2023-04-16T03:34:33.373Z,43.70
2023-04-16T03:37:00.163Z,47.97
2023-04-16T03:39:26.758Z,39.47
2023-04-16T03:41:53.355Z,40.27
2023-04-16T03:44:19.889Z,40.37
2023-04-16T03:46:46.559Z,41.77
2023-04-16T03:49:13.121Z,51.47
2023-04-16T03:51:40.335Z,49.40
2023-04-16T03:54:06.871Z,47.10
2023-04-16T03:56:33.443Z,45.90
2023-04-16T03:59:00.027Z,43.50
2023-04-16T04:01:26.601Z,42.93
2023-04-16T04:03:53.302Z,42.83
2023-04-16T04:06:19.992Z,45.10
2023-04-16T04:08:46.556Z,48.73
2023-04-16T04:11:13.105Z,44.40
2023-04-16T04:13:39.656Z,54.00
2023-04-16T04:16:06.570Z,40.63
2023-04-16T04:18:33.221Z,48.07
2023-04-16T04:20:59.878Z,43.57
2023-04-16T04:23:26.430Z,55.90
2023-04-16T04:25:55.853Z,43.57
2023-04-16T04:28:22.505Z,49.23
2023-04-16T04:30:49.056Z,39.90
2023-04-16T04:33:15.807Z,46.77
2023-04-16T04:35:42.426Z,46.70
2023-04-16T04:38:08.975Z,51.80
2023-04-16T04:40:35.544Z,44.77
2023-04-16T04:43:02.086Z,42.80
2023-04-16T04:45:31.163Z,46.63
2023-04-16T04:47:58.499Z,58.37
2023-04-16T04:50:25.373Z,45.53
2023-04-16T04:52:51.968Z,49.50
2023-04-16T04:55:18.666Z,48.30
2023-04-16T04:57:45.319Z,38.47
2023-04-16T05:00:12.103Z,50.40
2023-04-16T05:02:38.763Z,40.47
2023-04-16T05:05:06.068Z,49.20
2023-04-16T05:07:32.692Z,44.13
2023-04-16T05:09:59.266Z,48.83
2023-04-16T05:12:25.836Z,46.73
2023-04-16T05:14:52.438Z,44.93
2023-04-16T05:17:19.074Z,42.40
2023-04-16T05:19:45.683Z,47.73
2023-04-16T05:22:12.596Z,44.90
2023-04-16T05:24:39.160Z,49.83
2023-04-16T05:27:06.343Z,40.00
2023-04-16T05:29:32.990Z,47.47
2023-04-16T05:31:59.602Z,37.83
2023-04-16T05:34:26.375Z,44.07
2023-04-16T05:36:52.975Z,43.37
2023-04-16T05:39:20.125Z,42.43
2023-04-16T05:41:46.740Z,45.57
2023-04-16T05:44:13.279Z,44.30
2023-04-16T05:46:39.878Z,41.87
2023-04-16T05:49:06.453Z,41.13
2023-04-16T05:51:33.041Z,42.40
2023-04-16T05:53:59.602Z,45.10
2023-04-16T05:56:26.993Z,48.20
2023-04-16T05:58:53.529Z,45.47
2023-04-16T06:01:21.164Z,46.93
2023-04-16T06:03:47.748Z,44.10
2023-04-16T06:06:14.364Z,41.90
2023-04-16T06:08:40.902Z,43.83
2023-04-16T06:11:07.500Z,42.53
2023-04-16T06:13:34.048Z,42.83
2023-04-16T06:16:00.711Z,48.30
2023-04-16T06:18:27.363Z,50.83
2023-04-16T06:20:54.148Z,53.70
2023-04-16T06:23:21.151Z,45.53
2023-04-16T06:25:47.688Z,42.83
2023-04-16T06:28:16.619Z,38.83
2023-04-16T06:30:44.658Z,46.13
2023-04-16T06:33:11.544Z,40.17
2023-04-16T06:35:38.086Z,41.37
2023-04-16T06:38:04.609Z,37.13
2023-04-16T06:40:31.243Z,52.47
2023-04-16T06:42:57.806Z,40.53
2023-04-16T06:45:24.683Z,40.47
2023-04-16T06:47:52.243Z,44.77
2023-04-16T06:50:18.874Z,38.67
2023-04-16T06:52:45.790Z,42.20
2023-04-16T06:55:12.395Z,39.20
2023-04-16T06:57:40.543Z,44.40
2023-04-16T07:00:07.923Z,36.93
2023-04-16T07:02:35.032Z,43.53
2023-04-16T07:05:01.902Z,40.03
2023-04-16T07:07:28.481Z,39.50
2023-04-16T07:09:55.046Z,43.80
2023-04-16T07:12:22.742Z,38.63
2023-04-16T07:14:49.827Z,39.83
2023-04-16T07:17:16.508Z,41.57
2023-04-16T07:19:43.080Z,37.80
2023-04-16T07:22:09.622Z,45.67
2023-04-16T07:24:36.291Z,37.67
2023-04-16T07:27:02.862Z,32.03
2023-04-16T07:29:29.400Z,38.17
2023-04-16T07:31:56.134Z,40.43
2023-04-16T07:34:22.816Z,45.20
2023-04-16T07:36:49.366Z,34.90
2023-04-16T07:39:18.937Z,41.87
2023-04-16T07:41:45.795Z,39.87
2023-04-16T07:44:12.355Z,39.10
2023-04-16T07:46:46.175Z,33.47
2023-04-16T07:49:13.834Z,38.20
2023-04-16T07:51:40.439Z,32.20
2023-04-16T07:54:06.974Z,33.83
2023-04-16T07:56:33.658Z,31.80
2023-04-16T07:59:07.894Z,35.73
2023-04-16T08:01:45.592Z,34.00
2023-04-16T08:04:12.407Z,30.17
2023-04-16T08:06:39.139Z,32.60
2023-04-16T08:09:05.988Z,34.73
2023-04-16T08:11:32.587Z,32.20
2023-04-16T08:13:59.128Z,33.50
2023-04-16T08:16:25.814Z,33.40
2023-04-16T08:18:53.464Z,33.70
2023-04-16T08:21:20.304Z,30.77
2023-04-16T08:23:47.006Z,31.90
2023-04-16T08:26:13.672Z,30.50
2023-04-16T08:28:40.275Z,30.40
2023-04-16T08:31:06.939Z,31.03
2023-04-16T08:33:33.604Z,29.20
2023-04-16T08:36:00.227Z,29.97
2023-04-16T08:38:27.123Z,33.00
2023-04-16T08:40:54.932Z,32.03
2023-04-16T08:43:23.520Z,30.90
2023-04-16T08:45:53.489Z,34.87
2023-04-16T08:48:22.024Z,32.93
2023-04-16T08:50:52.924Z,35.97
2023-04-16T08:53:29.686Z,33.53
2023-04-16T08:55:59.620Z,37.20
2023-04-16T08:58:31.758Z,32.63
2023-04-16T09:00:58.388Z,32.70
2023-04-16T09:03:25.232Z,33.20
2023-04-16T09:05:53.359Z,33.03
2023-04-16T09:08:21.137Z,32.73
2023-04-16T09:10:48.898Z,33.57
2023-04-16T09:13:17.696Z,30.50
2023-04-16T09:15:44.443Z,34.33
2023-04-16T09:18:11.994Z,31.70
2023-04-16T09:20:39.399Z,33.17
2023-04-16T09:23:06.035Z,36.47
2023-04-16T09:25:37.110Z,33.97
2023-04-16T09:28:03.938Z,32.17
2023-04-16T09:30:30.539Z,27.60
2023-04-16T09:33:16.663Z,30.80
2023-04-16T09:35:48.192Z,33.53
2023-04-16T09:38:17.317Z,28.37
2023-04-16T09:40:44.259Z,29.50
2023-04-16T09:43:15.652Z,27.47
2023-04-16T09:45:50.707Z,32.57
2023-04-16T09:48:29.718Z,30.10
2023-04-16T09:50:56.719Z,32.97
2023-04-16T09:53:25.192Z,30.67
2023-04-16T09:55:52.300Z,30.50
2023-04-16T09:58:20.019Z,28.83
2023-04-16T10:00:46.683Z,29.23
2023-04-16T10:03:13.561Z,27.23
2023-04-16T10:05:41.265Z,27.63
2023-04-16T10:08:14.116Z,32.13
2023-04-16T10:10:41.064Z,30.30
2023-04-16T10:13:08.574Z,27.67
2023-04-16T10:15:35.239Z,29.50
2023-04-16T10:18:03.058Z,26.27
2023-04-16T10:20:30.217Z,31.63
2023-04-16T10:22:57.444Z,28.13
2023-04-16T10:25:24.745Z,27.43
2023-04-16T10:27:51.693Z,29.00
2023-04-16T10:30:19.396Z,26.03
2023-04-16T10:32:46.427Z,28.67
2023-04-16T10:35:18.990Z,27.50
2023-04-16T10:37:45.813Z,27.40
2023-04-16T10:40:26.525Z,29.53
2023-04-16T10:42:57.660Z,24.40
2023-04-16T10:45:31.714Z,28.63
2023-04-16T10:47:58.808Z,27.80
2023-04-16T10:50:33.726Z,29.70
2023-04-16T10:53:22.745Z,27.60
2023-04-16T10:56:11.642Z,27.10
2023-04-16T10:58:38.432Z,27.50
2023-04-16T11:01:16.641Z,31.53
2023-04-16T11:03:46.501Z,28.03
2023-04-16T11:06:17.405Z,29.23
2023-04-16T11:08:54.697Z,25.87
2023-04-16T11:11:22.346Z,22.77
2023-04-16T11:13:49.064Z,26.07
2023-04-16T11:16:16.724Z,26.53
2023-04-16T11:18:51.306Z,27.40
2023-04-16T11:21:19.422Z,21.73
2023-04-16T11:23:50.999Z,25.03
2023-04-16T11:26:26.050Z,24.30
2023-04-16T11:28:54.147Z,24.33
2023-04-16T11:31:20.857Z,21.57
2023-04-16T11:33:47.465Z,19.13
2023-04-16T11:36:14.081Z,18.73
2023-04-16T11:38:43.658Z,29.43
2023-04-16T11:41:11.036Z,21.90
2023-04-16T11:43:37.611Z,22.93
2023-04-16T11:46:20.151Z,20.87
2023-04-16T11:48:55.238Z,21.70
2023-04-16T11:51:23.156Z,20.80
2023-04-16T11:53:54.017Z,23.40
2023-04-16T11:56:33.153Z,19.10
2023-04-16T11:59:07.874Z,17.87
2023-04-16T12:01:36.875Z,19.87
2023-04-16T12:04:04.221Z,20.00
2023-04-16T12:06:32.381Z,22.13
2023-04-16T12:09:00.216Z,20.83
2023-04-16T12:11:40.250Z,19.63
2023-04-16T12:14:08.545Z,20.83
2023-04-16T12:16:35.957Z,22.70
2023-04-16T12:19:04.330Z,20.50
2023-04-16T12:21:44.847Z,18.50
2023-04-16T12:24:14.021Z,19.83
2023-04-16T12:26:51.482Z,21.63
2023-04-16T12:29:30.304Z,20.80
2023-04-16T12:31:56.949Z,20.60
2023-04-16T12:34:28.996Z,20.03
2023-04-16T12:37:10.507Z,21.60
2023-04-16T12:39:37.055Z,23.30
2023-04-16T12:42:05.307Z,21.23
2023-04-16T12:44:31.903Z,24.07
2023-04-16T12:46:58.453Z,22.80
2023-04-16T12:49:25.192Z,21.70
2023-04-16T12:51:51.762Z,19.53
2023-04-16T12:54:18.326Z,22.53
2023-04-16T12:56:44.872Z,22.20
2023-04-16T12:59:11.605Z,22.70
2023-04-16T13:01:38.382Z,20.20
2023-04-16T13:04:05.778Z,18.80
2023-04-16T13:06:33.654Z,19.93
2023-04-16T13:09:00.575Z,24.33
2023-04-16T13:11:27.381Z,19.13
2023-04-16T13:13:53.995Z,21.83
2023-04-16T13:16:20.885Z,17.97
2023-04-16T13:18:47.493Z,21.33
2023-04-16T13:21:14.142Z,18.10
2023-04-16T13:23:40.836Z,21.23
2023-04-16T13:26:07.581Z,20.27
2023-04-16T13:28:34.127Z,21.60
2023-04-16T13:31:02.228Z,26.33
2023-04-16T13:33:30.868Z,19.70
2023-04-16T13:35:57.491Z,20.37
2023-04-16T13:38:24.321Z,21.47
2023-04-16T13:40:50.926Z,22.27
2023-04-16T13:43:18.832Z,18.80
2023-04-16T13:45:45.963Z,18.50
2023-04-16T13:48:12.566Z,20.83
2023-04-16T13:50:39.149Z,22.67
2023-04-16T13:53:05.744Z,20.10
2023-04-16T13:55:32.395Z,21.23
2023-04-16T13:57:59.013Z,19.30
2023-04-16T14:00:28.376Z,19.77
2023-04-16T14:02:55.082Z,20.03
2023-04-16T14:05:25.193Z,20.07
2023-04-16T14:07:53.190Z,21.63
2023-04-16T14:10:20.019Z,23.13
2023-04-16T14:12:46.664Z,18.73
2023-04-16T14:15:14.726Z,20.37
2023-04-16T14:17:45.277Z,18.57
2023-04-16T14:20:13.325Z,19.27
2023-04-16T14:22:40.033Z,19.37
2023-04-16T14:25:07.197Z,22.30
2023-04-16T14:27:34.230Z,16.70
2023-04-16T14:30:01.023Z,22.33
2023-04-16T14:32:27.732Z,15.60
2023-04-16T14:34:54.360Z,19.90
2023-04-16T14:37:21.253Z,19.73
2023-04-16T14:39:47.854Z,17.70
2023-04-16T14:42:14.534Z,15.13
2023-04-16T14:44:41.063Z,16.57
2023-04-16T14:47:08.558Z,18.67
2023-04-16T14:49:35.216Z,18.13
2023-04-16T14:52:05.700Z,17.33
2023-04-16T14:54:33.263Z,16.23
2023-04-16T14:56:59.857Z,17.50
2023-04-16T14:59:26.704Z,17.40
2023-04-16T15:01:56.782Z,16.87
2023-04-16T15:04:24.439Z,17.67
2023-04-16T15:06:51.436Z,15.87
2023-04-16T15:09:18.006Z,19.03
2023-04-16T15:11:44.601Z,18.20
2023-04-16T15:14:11.315Z,15.17
2023-04-16T15:16:38.076Z,19.13
2023-04-16T15:19:05.381Z,18.03
2023-04-16T15:21:32.789Z,16.93
2023-04-16T15:23:59.374Z,20.80
2023-04-16T15:26:26.044Z,17.73
2023-04-16T15:28:52.592Z,15.30
2023-04-16T15:31:20.747Z,19.13
2023-04-16T15:33:48.325Z,18.00
2023-04-16T15:36:15.413Z,18.40
2023-04-16T15:38:42.122Z,17.10
2023-04-16T15:41:09.835Z,17.73
2023-04-16T15:43:36.585Z,16.70
2023-04-16T15:46:03.182Z,16.50
2023-04-16T15:48:29.726Z,15.27
2023-04-16T15:50:56.472Z,17.03
2023-04-16T15:53:23.125Z,15.70
2023-04-16T15:55:52.521Z,14.77
2023-04-16T15:58:20.745Z,15.90
2023-04-16T16:00:49.800Z,14.17
2023-04-16T16:03:18.665Z,15.37
2023-04-16T16:05:48.627Z,18.00
2023-04-16T16:08:15.908Z,14.37
2023-04-16T16:10:43.003Z,16.70
2023-04-16T16:13:13.031Z,16.57
2023-04-16T16:15:41.192Z,14.57
2023-04-16T16:18:08.077Z,15.10
2023-04-16T16:20:34.914Z,14.40
2023-04-16T16:23:01.926Z,13.87
2023-04-16T16:25:30.155Z,15.10
2023-04-16T16:27:56.873Z,15.70
2023-04-16T16:30:23.512Z,16.33
2023-04-16T16:32:50.730Z,17.83
2023-04-16T16:35:17.332Z,16.70
2023-04-16T16:37:43.940Z,16.93
2023-04-16T16:40:11.191Z,16.80
2023-04-16T16:42:37.814Z,19.87
2023-04-16T16:45:05.900Z,16.00
2023-04-16T16:47:32.900Z,16.57
2023-04-16T16:50:01.311Z,16.00
2023-04-16T16:52:29.218Z,15.60
2023-04-16T16:54:56.717Z,17.10
2023-04-16T16:57:23.937Z,14.40
2023-04-16T16:59:50.969Z,17.37
2023-04-16T17:02:18.467Z,15.00
2023-04-16T17:04:45.216Z,14.43
2023-04-16T17:07:11.885Z,17.60
2023-04-16T17:09:38.900Z,14.47
2023-04-16T17:12:06.252Z,18.73
2023-04-16T17:14:33.395Z,17.07
2023-04-16T17:17:00.083Z,23.53
2023-04-16T17:19:27.327Z,31.57
2023-04-16T17:21:54.056Z,25.30
2023-04-16T17:24:20.900Z,25.73
2023-04-16T17:26:47.485Z,31.20
2023-04-16T17:29:14.142Z,26.90
2023-04-16T17:31:40.990Z,24.10
2023-04-16T17:34:07.543Z,31.83
2023-04-16T17:36:34.321Z,29.00
2023-04-16T17:39:00.980Z,33.60
2023-04-16T17:41:27.523Z,29.30
2023-04-16T17:43:54.097Z,22.97
2023-04-16T17:46:20.751Z,31.40
2023-04-16T17:48:48.740Z,33.07
2023-04-16T17:51:16.381Z,29.53
2023-04-16T17:53:43.455Z,27.47
2023-04-16T17:56:10.782Z,34.40
2023-04-16T17:58:37.435Z,35.00
2023-04-16T18:01:06.052Z,32.50
2023-04-16T18:03:33.186Z,29.33
2023-04-16T18:06:00.520Z,34.63
2023-04-16T18:08:27.560Z,28.60
2023-04-16T18:10:55.440Z,30.70
2023-04-16T18:13:22.728Z,35.53
2023-04-16T18:15:52.869Z,30.03
2023-04-16T18:18:20.488Z,29.73
2023-04-16T18:20:47.103Z,23.23
2023-04-16T18:23:13.628Z,30.97
2023-04-16T18:25:40.444Z,25.53
2023-04-16T18:28:07.188Z,23.83
2023-04-16T18:30:34.322Z,27.23
2023-04-16T18:33:26.357Z,32.63
2023-04-16T18:35:47.750Z,21.90
2023-04-16T18:38:14.350Z,24.13
2023-04-16T18:40:41.527Z,25.30
2023-04-16T18:43:08.111Z,25.73
2023-04-16T18:45:34.759Z,28.83
2023-04-16T18:48:03.476Z,19.60
2023-04-16T18:50:30.119Z,24.97
2023-04-16T18:52:56.677Z,25.33
2023-04-16T18:55:23.304Z,25.97
2023-04-16T18:57:49.996Z,21.90
2023-04-16T19:00:16.823Z,22.70
2023-04-16T19:02:43.478Z,21.80
2023-04-16T19:05:10.276Z,22.23
2023-04-16T19:07:37.526Z,22.80
2023-04-16T19:10:05.257Z,27.47
2023-04-16T19:12:32.202Z,20.57
2023-04-16T19:14:58.958Z,22.80
2023-04-16T19:17:25.875Z,23.40
2023-04-16T19:19:52.537Z,25.93
2023-04-16T19:22:19.076Z,23.57
2023-04-16T19:24:45.716Z,22.60
2023-04-16T19:27:12.287Z,20.63
2023-04-16T19:29:40.396Z,20.20
2023-04-16T19:32:07.077Z,20.43
2023-04-16T19:34:33.773Z,21.53
2023-04-16T19:37:00.374Z,23.80
2023-04-16T19:39:31.492Z,20.27
2023-04-16T19:41:58.208Z,24.77
2023-04-16T19:44:25.143Z,23.10
2023-04-16T19:46:51.723Z,25.23
2023-04-16T19:49:18.400Z,21.60
2023-04-16T19:51:46.235Z,23.50
2023-04-16T19:54:13.246Z,19.10
2023-04-16T19:56:39.796Z,19.97
2023-04-16T19:59:06.810Z,20.97
2023-04-16T20:01:33.503Z,24.40
2023-04-16T20:04:00.261Z,23.17
2023-04-16T20:06:27.657Z,20.27
2023-04-16T20:08:54.277Z,22.50
2023-04-16T20:11:20.877Z,22.77
2023-04-16T20:13:47.773Z,23.10
2023-04-16T20:16:14.662Z,22.83
2023-04-16T20:18:41.497Z,19.57
2023-04-16T20:21:09.117Z,22.73
2023-04-16T20:23:35.695Z,24.07
2023-04-16T20:26:02.356Z,23.20
2023-04-16T20:28:28.884Z,26.00
2023-04-16T20:30:55.593Z,27.17
2023-04-16T20:33:22.203Z,21.70
2023-04-16T20:35:50.779Z,24.47
2023-04-16T20:38:23.392Z,31.73
2023-04-16T20:40:59.670Z,28.40
2023-04-16T20:43:29.366Z,24.80
2023-04-16T20:45:56.005Z,27.73
2023-04-16T20:48:22.657Z,25.53
2023-04-16T20:50:49.305Z,29.07
2023-04-16T20:53:15.904Z,26.60
2023-04-16T20:55:43.251Z,26.17
2023-04-16T20:58:09.778Z,37.67
2023-04-16T21:00:36.570Z,25.70
2023-04-16T21:03:03.721Z,30.10
2023-04-16T21:05:30.502Z,31.80
2023-04-16T21:07:57.034Z,27.60
2023-04-16T21:10:23.641Z,31.77
2023-04-16T21:12:50.198Z,30.43
2023-04-16T21:15:16.878Z,30.20
2023-04-16T21:17:43.534Z,30.50
2023-04-16T21:20:13.299Z,30.90
2023-04-16T21:22:39.834Z,35.83
2023-04-16T21:25:07.018Z,34.40
2023-04-16T21:27:33.549Z,37.60
2023-04-16T21:30:00.253Z,30.37
2023-04-16T21:32:26.848Z,34.67
2023-04-16T21:34:53.422Z,39.07
2023-04-16T21:37:20.091Z,35.40
2023-04-16T21:39:46.624Z,39.17
2023-04-16T21:42:13.386Z,38.97
2023-04-16T21:44:39.983Z,42.53
2023-04-16T21:47:06.626Z,44.70
2023-04-16T21:49:33.206Z,33.30
2023-04-16T21:52:02.212Z,42.60
2023-04-16T21:54:28.814Z,38.63
2023-04-16T21:56:55.378Z,45.73
2023-04-16T21:59:21.930Z,41.53
2023-04-16T22:01:48.566Z,43.87
2023-04-16T22:04:15.234Z,39.90
2023-04-16T22:06:42.910Z,37.53
2023-04-16T22:09:09.619Z,42.23
2023-04-16T22:11:36.512Z,40.63
2023-04-16T22:14:08.009Z,39.23
2023-04-16T22:16:35.745Z,36.90
2023-04-16T22:19:02.595Z,37.37
2023-04-16T22:21:29.162Z,36.33
2023-04-16T22:23:55.704Z,39.67
2023-04-16T22:26:22.284Z,40.10
2023-04-16T22:28:48.807Z,36.97
2023-04-16T22:31:15.342Z,40.47
2023-04-16T22:33:41.902Z,37.20
2023-04-16T22:36:08.797Z,39.00
2023-04-16T22:38:35.348Z,42.03
2023-04-16T22:41:01.891Z,45.27
2023-04-16T22:43:28.426Z,37.03
2023-04-16T22:46:04.378Z,44.27
2023-04-16T22:48:31.599Z,43.10
2023-04-16T22:50:58.184Z,43.73
2023-04-16T22:53:25.385Z,41.67
2023-04-16T22:55:51.974Z,49.50
2023-04-16T22:58:18.582Z,43.70
2023-04-16T23:00:46.038Z,38.93
2023-04-16T23:03:12.607Z,44.53
2023-04-16T23:05:39.208Z,37.80
2023-04-16T23:08:05.978Z,45.00
2023-04-16T23:10:32.635Z,41.50
2023-04-16T23:12:59.165Z,41.23
2023-04-16T23:15:25.963Z,40.97
2023-04-16T23:17:52.522Z,37.90
2023-04-16T23:20:19.208Z,43.33
2023-04-16T23:22:46.488Z,41.17
2023-04-16T23:25:13.215Z,44.30
2023-04-16T23:27:39.827Z,42.80
2023-04-16T23:30:06.938Z,44.60
2023-04-16T23:32:36.652Z,45.30
2023-04-16T23:35:03.332Z,39.00
2023-04-16T23:37:29.916Z,37.60
2023-04-16T23:39:56.509Z,45.83
2023-04-16T23:42:23.052Z,39.37
2023-04-16T23:44:49.678Z,39.00
2023-04-16T23:47:16.262Z,41.33
2023-04-16T23:49:42.798Z,38.10
2023-04-16T23:52:09.399Z,40.87
2023-04-16T23:54:36.339Z,35.87
2023-04-16T23:57:03.017Z,34.43
2023-04-16T23:59:29.638Z,42.53
